Time;durP1;ratioP1;P1;durP2;ratioP2;P2;SDS_P1;SDS_P2;PMS_P1;PMS_P2;Temp;Humidity;BMP_temperature;BMP_pressure;BME280_temperature;BME280_humidity;BME280_pressure;Samples;Min_cycle;Max_cycle;Signal;HPM_P1;HPM_P2
2022/03/09 00:01:26;;;;;;;7.80;4.03;;;1.70;99.90;;;;;;5011268;28;20061;-64
2022/03/09 00:03:52;;;;;;;8.68;4.53;;;1.70;99.90;;;;;;4976850;28;20049;-65
2022/03/09 00:06:17;;;;;;;7.45;4.07;;;1.60;99.90;;;;;;5007195;28;20050;-65
2022/03/09 00:08:43;;;;;;;9.93;4.68;;;1.60;99.90;;;;;;5012415;28;20093;-65
2022/03/09 00:11:09;;;;;;;8.07;4.07;;;1.60;99.90;;;;;;4997094;28;20085;-64
2022/03/09 00:13:34;;;;;;;7.53;4.07;;;1.60;99.90;;;;;;4980045;28;20049;-64
2022/03/09 00:16:00;;;;;;;6.97;3.70;;;1.50;99.90;;;;;;5012020;28;20038;-64
2022/03/09 00:18:25;;;;;;;6.25;3.53;;;1.50;99.90;;;;;;5009126;28;20091;-65
2022/03/09 00:20:51;;;;;;;6.75;3.65;;;1.50;99.90;;;;;;4990783;28;20531;-65
2022/03/09 00:23:17;;;;;;;7.60;3.63;;;1.50;99.90;;;;;;5012499;28;20050;-64
2022/03/09 00:25:42;;;;;;;7.75;3.70;;;1.50;99.90;;;;;;4992224;28;20499;-64
2022/03/09 00:28:08;;;;;;;9.00;3.83;;;1.50;99.90;;;;;;5011894;28;20399;-66
2022/03/09 00:30:33;;;;;;;5.57;3.20;;;1.50;99.90;;;;;;5008942;28;20566;-64
2022/03/09 00:32:59;;;;;;;5.93;3.95;;;1.50;99.90;;;;;;4994418;28;20088;-64
2022/03/09 00:35:25;;;;;;;5.63;3.50;;;1.50;99.90;;;;;;4994783;28;20073;-64
2022/03/09 00:37:50;;;;;;;11.13;4.25;;;1.50;99.90;;;;;;5011507;28;20049;-65
2022/03/09 00:40:16;;;;;;;7.40;3.83;;;1.50;99.90;;;;;;5008591;28;20492;-64
2022/03/09 00:42:42;;;;;;;6.47;3.80;;;1.40;99.90;;;;;;4982052;28;20120;-65
2022/03/09 00:45:08;;;;;;;7.95;3.67;;;1.50;99.90;;;;;;5011042;28;20057;-65
2022/03/09 00:47:33;;;;;;;13.02;3.88;;;1.40;99.90;;;;;;5012285;28;20038;-64
2022/03/09 00:49:59;;;;;;;6.65;3.83;;;1.40;99.90;;;;;;5011414;28;20034;-64
2022/03/09 00:52:25;;;;;;;10.48;3.67;;;1.40;99.90;;;;;;4996185;28;20127;-64
2022/03/09 00:54:50;;;;;;;6.78;3.92;;;1.40;99.90;;;;;;4993655;28;20030;-64
2022/03/09 00:57:16;;;;;;;10.38;4.30;;;1.40;99.90;;;;;;5010595;28;20096;-64
2022/03/09 00:59:42;;;;;;;12.70;4.60;;;1.40;99.90;;;;;;5010625;28;20397;-64
2022/03/09 01:02:08;;;;;;;9.95;5.13;;;1.30;99.90;;;;;;4991651;28;20042;-65
2022/03/09 01:04:34;;;;;;;10.27;5.30;;;1.30;99.90;;;;;;5006400;28;20046;-64
2022/03/09 01:07:01;;;;;;;11.63;5.18;;;1.20;99.90;;;;;;4977144;28;20041;-64
2022/03/09 01:09:26;;;;;;;9.75;5.07;;;1.20;99.90;;;;;;5000358;28;20447;-64
2022/03/09 01:11:52;;;;;;;10.93;4.60;;;1.20;99.90;;;;;;5012008;28;20041;-64
2022/03/09 01:14:18;;;;;;;9.68;4.40;;;1.20;99.90;;;;;;5011866;28;20385;-64
2022/03/09 01:16:43;;;;;;;10.10;4.28;;;1.20;99.90;;;;;;4991000;28;20480;-65
2022/03/09 01:19:09;;;;;;;10.25;4.15;;;1.10;99.90;;;;;;5009110;28;20471;-64
2022/03/09 01:21:35;;;;;;;6.97;3.67;;;1.10;99.90;;;;;;5009676;28;20404;-64
2022/03/09 01:24:01;;;;;;;6.95;3.97;;;1.10;99.90;;;;;;4991729;28;20046;-64
2022/03/09 01:26:26;;;;;;;12.70;4.57;;;1.00;99.90;;;;;;5011336;28;20048;-65
2022/03/09 01:28:52;;;;;;;9.10;4.65;;;1.00;99.90;;;;;;4996297;28;20034;-66
2022/03/09 01:31:18;;;;;;;12.77;5.05;;;1.00;99.90;;;;;;5008105;28;20049;-65
2022/03/09 01:33:44;;;;;;;15.48;5.07;;;1.00;99.90;;;;;;4998242;28;20411;-63
2022/03/09 01:36:09;;;;;;;11.80;5.50;;;0.90;99.90;;;;;;4993352;28;20073;-65
2022/03/09 01:38:36;;;;;;;10.35;5.55;;;0.90;99.90;;;;;;4994369;28;20107;-65
2022/03/09 01:41:01;;;;;;;14.52;6.47;;;0.90;99.90;;;;;;5010708;28;20038;-65
2022/03/09 01:43:27;;;;;;;11.90;6.40;;;0.90;99.90;;;;;;5006936;28;20061;-64
2022/03/09 01:45:53;;;;;;;11.88;6.55;;;0.90;99.90;;;;;;4994866;28;20099;-64
2022/03/09 01:48:18;;;;;;;11.88;6.50;;;0.90;99.90;;;;;;5010404;28;20042;-64
2022/03/09 01:50:46;;;;;;;10.93;6.05;;;0.90;99.90;;;;;;4994973;28;20046;-65
2022/03/09 01:53:12;;;;;;;14.13;6.33;;;0.80;99.90;;;;;;5010483;28;20053;-64
2022/03/09 01:55:38;;;;;;;12.75;6.13;;;0.80;99.90;;;;;;4988555;28;22180;-66
2022/03/09 01:58:04;;;;;;;12.57;6.40;;;0.80;99.90;;;;;;5010859;28;20072;-64
2022/03/09 02:00:30;;;;;;;9.85;5.53;;;0.70;99.90;;;;;;5009324;28;20404;-65
2022/03/09 02:02:56;;;;;;;11.68;5.80;;;0.70;99.90;;;;;;4993829;28;20053;-65
2022/03/09 02:05:22;;;;;;;7.20;4.25;;;0.70;99.90;;;;;;5014213;28;20467;-65
2022/03/09 02:10:32;;;;;;;10.38;4.13;;;0.70;99.90;;;;;;5014814;28;20053;-64
2022/03/09 02:12:57;;;;;;;11.43;4.25;;;0.70;99.90;;;;;;4982396;28;20498;-65
2022/03/09 02:15:23;;;;;;;8.07;4.38;;;0.60;99.90;;;;;;5014261;28;20057;-65
2022/03/09 02:17:49;;;;;;;8.07;4.43;;;1.70;99.90;;;;;;5008746;28;20061;-64
2022/03/09 02:20:14;;;;;;;9.70;4.40;;;0.70;99.90;;;;;;5014583;28;20127;-64
2022/03/09 02:22:42;;;;;;;8.73;4.65;;;2.10;99.90;;;;;;5013628;28;20042;-64
2022/03/09 02:25:15;;;;;;;8.50;4.20;;;0.70;99.90;;;;;;5011632;28;20081;-65
2022/03/09 02:27:42;;;;;;;8.77;4.03;;;0.70;99.90;;;;;;4997697;28;20378;-65
2022/03/09 02:30:10;;;;;;;11.57;4.88;;;0.70;99.90;;;;;;4998816;28;20377;-63
2022/03/09 02:32:41;;;;;;;7.97;4.85;;;0.70;99.90;;;;;;5006930;28;20050;-65
2022/03/09 02:35:08;;;;;;;9.82;4.18;;;0.70;99.90;;;;;;4996085;28;20038;-65
2022/03/09 02:37:33;;;;;;;7.90;4.32;;;0.70;99.90;;;;;;5013472;28;20127;-64
2022/03/09 02:39:59;;;;;;;7.68;4.43;;;0.70;99.90;;;;;;4999002;28;20104;-66
2022/03/09 02:42:25;;;;;;;8.75;4.50;;;0.90;99.90;;;;;;5012606;28;20041;-65
2022/03/09 02:44:50;;;;;;;12.52;4.80;;;0.60;99.90;;;;;;4993502;28;20051;-64
2022/03/09 02:47:16;;;;;;;8.20;4.57;;;0.60;99.90;;;;;;4995759;28;20085;-64
2022/03/09 02:49:42;;;;;;;8.68;4.97;;;0.60;99.90;;;;;;5015021;28;20411;-65
2022/03/09 02:52:07;;;;;;;7.65;4.88;;;0.60;99.90;;;;;;5012188;28;20034;-65
2022/03/09 02:54:33;;;;;;;7.60;4.50;;;0.60;99.90;;;;;;5009504;28;20037;-65
2022/03/09 02:56:59;;;;;;;9.57;4.90;;;0.60;99.90;;;;;;5011947;28;20369;-64
2022/03/09 02:59:24;;;;;;;11.23;5.43;;;0.60;99.90;;;;;;4996297;28;20409;-67
2022/03/09 03:01:50;;;;;;;9.77;5.35;;;0.60;99.90;;;;;;5012909;28;20042;-65
2022/03/09 03:04:15;;;;;;;8.77;4.68;;;0.60;99.90;;;;;;5008641;28;20046;-64
2022/03/09 03:06:41;;;;;;;10.23;4.82;;;0.60;99.90;;;;;;5013608;28;20077;-64
2022/03/09 03:09:07;;;;;;;8.68;5.20;;;0.60;99.90;;;;;;5012164;28;20042;-66
2022/03/09 03:11:32;;;;;;;10.27;5.53;;;0.60;99.90;;;;;;4995004;28;20038;-66
2022/03/09 03:13:58;;;;;;;12.18;5.00;;;0.50;99.90;;;;;;4995842;28;20129;-64
2022/03/09 03:16:23;;;;;;;8.05;5.10;;;0.50;99.90;;;;;;4987779;28;20048;-64
2022/03/09 03:18:49;;;;;;;9.57;5.50;;;0.50;99.90;;;;;;5011642;28;20505;-65
2022/03/09 03:21:15;;;;;;;12.00;4.72;;;0.40;99.90;;;;;;5010159;28;20042;-65
2022/03/09 03:23:40;;;;;;;9.55;5.10;;;0.40;99.90;;;;;;5012006;28;20133;-65
2022/03/09 03:26:06;;;;;;;10.48;4.97;;;0.40;99.90;;;;;;4995361;28;20440;-64
2022/03/09 03:28:32;;;;;;;9.13;5.03;;;0.40;99.90;;;;;;5008967;28;20045;-64
2022/03/09 03:30:58;;;;;;;13.68;5.63;;;0.30;99.90;;;;;;4985104;28;20100;-65
2022/03/09 03:33:25;;;;;;;10.73;5.45;;;0.40;99.90;;;;;;5004369;28;20046;-64
2022/03/09 03:35:51;;;;;;;12.23;5.40;;;0.30;99.90;;;;;;4984680;28;20068;-66
2022/03/09 03:38:17;;;;;;;10.57;5.10;;;0.40;99.90;;;;;;5012120;28;20038;-64
2022/03/09 03:40:43;;;;;;;10.20;5.35;;;0.40;99.90;;;;;;5012495;28;20056;-64
2022/03/09 03:43:10;;;;;;;15.60;5.55;;;0.30;99.90;;;;;;4991296;28;20060;-64
2022/03/09 03:45:36;;;;;;;11.25;5.25;;;0.30;99.90;;;;;;5010515;28;20125;-64
2022/03/09 03:48:02;;;;;;;9.98;5.60;;;0.30;99.90;;;;;;5009092;28;20530;-64
2022/03/09 03:50:28;;;;;;;11.88;7.05;;;0.30;99.90;;;;;;4986634;28;20132;-65
2022/03/09 03:52:54;;;;;;;13.68;6.65;;;0.20;99.90;;;;;;5010523;28;20124;-65
2022/03/09 03:55:19;;;;;;;11.73;6.07;;;0.30;99.90;;;;;;5009992;28;20116;-64
2022/03/09 03:57:45;;;;;;;11.43;5.82;;;0.30;99.90;;;;;;4997724;28;20041;-65
2022/03/09 04:00:11;;;;;;;16.60;5.82;;;0.30;99.90;;;;;;5010777;28;20058;-64
2022/03/09 04:02:37;;;;;;;11.57;6.03;;;0.40;99.90;;;;;;4991461;28;20077;-65
2022/03/09 04:05:05;;;;;;;11.38;6.30;;;0.40;99.90;;;;;;5002256;28;20074;-63
2022/03/09 04:07:31;;;;;;;9.63;6.07;;;0.40;99.90;;;;;;5011636;28;20547;-64
2022/03/09 04:09:56;;;;;;;11.73;6.43;;;0.40;99.90;;;;;;5011116;28;20480;-64
2022/03/09 04:12:23;;;;;;;12.80;6.88;;;0.30;99.90;;;;;;5001438;28;20037;-64
2022/03/09 04:14:50;;;;;;;12.25;6.45;;;0.30;99.90;;;;;;5006640;28;20053;-65
2022/03/09 04:17:16;;;;;;;11.15;5.65;;;0.30;99.90;;;;;;4990566;28;20038;-64
2022/03/09 04:19:41;;;;;;;10.13;6.28;;;0.30;99.90;;;;;;5008862;28;20168;-64
2022/03/09 04:22:07;;;;;;;9.73;5.53;;;0.30;99.90;;;;;;4991123;28;20038;-65
2022/03/09 04:24:33;;;;;;;14.35;5.75;;;0.30;99.90;;;;;;5004260;28;20053;-65
2022/03/09 04:26:58;;;;;;;10.90;5.60;;;0.30;99.90;;;;;;4997901;28;20070;-65
2022/03/09 04:29:24;;;;;;;11.38;5.93;;;0.20;99.90;;;;;;4992834;28;20065;-64
2022/03/09 04:31:50;;;;;;;11.38;5.88;;;0.20;99.90;;;;;;5010070;28;20050;-64
2022/03/09 04:34:15;;;;;;;11.65;5.38;;;0.20;99.90;;;;;;5007908;28;20046;-64
2022/03/09 04:36:41;;;;;;;11.20;5.97;;;0.40;99.90;;;;;;4993334;28;20048;-65
2022/03/09 04:39:07;;;;;;;10.82;5.90;;;0.10;99.90;;;;;;5007157;28;20034;-66
2022/03/09 04:41:32;;;;;;;12.02;6.20;;;0.10;99.90;;;;;;4994462;28;20550;-66
2022/03/09 04:43:58;;;;;;;8.55;5.60;;;0.10;99.90;;;;;;5008702;28;20415;-66
2022/03/09 04:46:24;;;;;;;12.77;5.78;;;0.10;99.90;;;;;;4975359;28;20045;-64
2022/03/09 04:48:49;;;;;;;10.73;6.15;;;0.10;99.90;;;;;;4994062;28;20480;-63
2022/03/09 04:51:16;;;;;;;11.15;6.70;;;0.10;99.90;;;;;;4991252;28;20050;-66
2022/03/09 04:53:42;;;;;;;12.93;6.15;;;0.00;99.90;;;;;;5006805;28;20068;-64
2022/03/09 04:56:08;;;;;;;10.48;6.60;;;0.00;99.90;;;;;;5008009;28;20041;-64
2022/03/09 04:58:33;;;;;;;11.57;6.10;;;0.00;99.90;;;;;;4974522;28;20049;-65
2022/03/09 05:00:59;;;;;;;16.35;6.43;;;-0.10;99.90;;;;;;4991005;28;20485;-65
2022/03/09 05:03:25;;;;;;;10.80;5.80;;;-0.10;99.90;;;;;;4992840;28;20121;-65
2022/03/09 05:05:50;;;;;;;13.50;6.97;;;-0.10;99.90;;;;;;4991159;28;20108;-65
2022/03/09 05:08:16;;;;;;;12.27;7.32;;;-0.10;99.90;;;;;;4991281;28;21148;-65
2022/03/09 05:10:42;;;;;;;15.52;7.75;;;-0.10;99.90;;;;;;4992904;28;20045;-64
2022/03/09 05:13:08;;;;;;;13.02;8.10;;;-0.20;99.90;;;;;;5009697;28;20072;-64
2022/03/09 05:15:33;;;;;;;11.45;6.85;;;-0.20;99.90;;;;;;4989115;28;20033;-65
2022/03/09 05:18:02;;;;;;;14.40;7.50;;;-0.20;99.90;;;;;;4991568;28;20133;-65
2022/03/09 05:20:27;;;;;;;15.70;8.13;;;-0.20;99.90;;;;;;4993480;28;20480;-64
2022/03/09 05:22:53;;;;;;;14.75;8.35;;;-0.20;99.90;;;;;;5009302;28;20105;-65
2022/03/09 05:25:19;;;;;;;15.95;8.38;;;-0.20;99.90;;;;;;4988949;28;20044;-64
2022/03/09 05:27:45;;;;;;;15.35;7.63;;;-0.20;99.90;;;;;;5003693;28;20050;-65
2022/03/09 05:30:11;;;;;;;17.40;8.30;;;-0.20;99.90;;;;;;4990475;28;20042;-66
2022/03/09 05:32:38;;;;;;;14.70;7.95;;;-0.20;99.90;;;;;;5008220;28;20495;-65
2022/03/09 05:35:05;;;;;;;15.53;8.20;;;-0.20;99.90;;;;;;4992373;28;20041;-65
2022/03/09 05:37:38;;;;;;;14.75;7.68;;;-0.20;99.90;;;;;;5008472;28;20083;-65
2022/03/09 05:40:05;;;;;;;21.27;7.90;;;-0.20;99.90;;;;;;5010138;28;20065;-65
2022/03/09 05:42:31;;;;;;;13.38;7.47;;;-0.20;99.90;;;;;;5010425;28;20042;-65
2022/03/09 05:44:56;;;;;;;17.58;7.95;;;-0.20;99.90;;;;;;5008536;28;20048;-64
2022/03/09 05:47:22;;;;;;;17.88;8.32;;;-0.30;99.90;;;;;;4988767;28;20052;-64
2022/03/09 05:49:48;;;;;;;14.20;8.32;;;-0.30;99.90;;;;;;5008368;28;20038;-65
2022/03/09 05:52:13;;;;;;;13.88;7.53;;;-0.30;99.90;;;;;;5008908;28;20495;-66
2022/03/09 05:54:39;;;;;;;16.02;7.43;;;-0.30;99.90;;;;;;5005631;28;20046;-64
2022/03/09 05:57:05;;;;;;;14.38;7.97;;;-0.30;99.90;;;;;;5006023;28;20049;-64
2022/03/09 05:59:30;;;;;;;18.13;8.48;;;-0.40;99.90;;;;;;5008729;28;20048;-64
2022/03/09 06:01:56;;;;;;;14.50;7.82;;;-0.30;99.90;;;;;;5007059;28;20057;-65
2022/03/09 06:04:21;;;;;;;17.77;7.60;;;-0.30;99.90;;;;;;5003158;28;20034;-64
2022/03/09 06:06:47;;;;;;;13.38;7.53;;;-0.20;99.90;;;;;;5008555;28;20045;-65
2022/03/09 06:09:13;;;;;;;13.45;7.10;;;-0.30;99.90;;;;;;4998175;28;20046;-65
2022/03/09 06:11:41;;;;;;;11.95;7.45;;;-0.20;99.90;;;;;;4976743;28;20196;-66
2022/03/09 06:14:07;;;;;;;13.38;6.72;;;-0.20;99.90;;;;;;5008403;28;20057;-65
2022/03/09 06:16:32;;;;;;;11.40;6.95;;;-0.20;99.90;;;;;;5004645;28;20039;-65
2022/03/09 06:18:58;;;;;;;12.20;6.90;;;-0.20;99.90;;;;;;5006233;28;20050;-65
2022/03/09 06:21:24;;;;;;;14.32;7.40;;;-0.20;99.90;;;;;;5004062;28;20034;-65
2022/03/09 06:23:49;;;;;;;13.15;7.30;;;-0.20;99.90;;;;;;4976413;28;20034;-65
2022/03/09 06:26:15;;;;;;;15.73;6.65;;;-0.20;99.90;;;;;;4990878;28;20042;-65
2022/03/09 06:28:41;;;;;;;16.00;7.63;;;-0.20;99.90;;;;;;5007963;28;20042;-65
2022/03/09 06:31:07;;;;;;;16.13;7.35;;;-0.20;99.90;;;;;;4991843;28;20085;-65
2022/03/09 06:33:33;;;;;;;15.07;8.18;;;-0.20;99.90;;;;;;5005752;28;20057;-65
2022/03/09 06:35:58;;;;;;;17.63;8.48;;;-0.20;99.90;;;;;;5007356;28;20048;-65
2022/03/09 06:38:25;;;;;;;21.33;9.43;;;-0.20;99.90;;;;;;5004333;28;20045;-66
2022/03/09 06:40:50;;;;;;;15.10;8.55;;;-0.20;99.90;;;;;;4994225;28;20061;-65
2022/03/09 06:43:16;;;;;;;15.35;8.05;;;-0.20;99.90;;;;;;5002127;28;20034;-64
2022/03/09 06:45:41;;;;;;;17.02;7.88;;;-0.20;99.90;;;;;;4990205;28;20056;-65
2022/03/09 06:48:07;;;;;;;18.55;7.50;;;-0.10;99.90;;;;;;4990908;28;20045;-65
2022/03/09 06:50:34;;;;;;;18.35;7.72;;;-0.10;99.90;;;;;;4992344;28;20139;-65
2022/03/09 06:53:00;;;;;;;19.05;7.60;;;-0.10;99.90;;;;;;5011520;28;20057;-65
2022/03/09 06:55:26;;;;;;;12.80;7.55;;;0.00;99.90;;;;;;5011197;28;20132;-66
2022/03/09 06:57:52;;;;;;;15.32;7.30;;;0.10;99.90;;;;;;5010415;28;20049;-66
2022/03/09 07:00:18;;;;;;;14.48;7.13;;;0.10;99.90;;;;;;5011175;28;20349;-65
2022/03/09 07:02:44;;;;;;;19.45;8.15;;;0.70;99.90;;;;;;4994466;28;20046;-66
2022/03/09 07:05:10;;;;;;;13.65;6.95;;;0.30;99.90;;;;;;5004831;28;20045;-65
2022/03/09 07:07:37;;;;;;;17.60;7.68;;;0.40;99.90;;;;;;4990958;28;20317;-66
2022/03/09 07:10:03;;;;;;;15.57;7.15;;;0.40;99.90;;;;;;5009198;28;20045;-66
2022/03/09 07:12:29;;;;;;;25.33;7.35;;;0.60;99.90;;;;;;5003265;28;20518;-66
2022/03/09 07:14:54;;;;;;;12.98;7.60;;;0.70;99.90;;;;;;5009059;28;20038;-65
2022/03/09 07:17:23;;;;;;;16.95;6.93;;;0.80;99.90;;;;;;5009715;28;20129;-65
2022/03/09 07:19:49;;;;;;;16.00;6.82;;;0.80;99.90;;;;;;5004094;28;20081;-65
2022/03/09 07:22:15;;;;;;;17.33;7.20;;;1.00;99.90;;;;;;5009745;28;20084;-64
2022/03/09 07:24:40;;;;;;;13.85;7.50;;;1.10;99.90;;;;;;4991057;28;20451;-65
2022/03/09 07:27:06;;;;;;;13.55;7.97;;;2.10;99.90;;;;;;5007281;28;20074;-66
2022/03/09 07:29:32;;;;;;;17.10;6.93;;;0.60;99.90;;;;;;5008219;28;20407;-63
2022/03/09 07:31:58;;;;;;;14.73;6.88;;;1.50;99.90;;;;;;5006303;28;20054;-66
2022/03/09 07:34:26;;;;;;;17.05;7.88;;;1.60;99.90;;;;;;4993137;28;20159;-65
2022/03/09 07:36:57;;;;;;;18.20;7.68;;;1.70;99.90;;;;;;5009674;28;20056;-65
2022/03/09 07:39:27;;;;;;;12.90;7.35;;;2.90;99.90;;;;;;5008539;28;20124;-64
2022/03/09 07:41:54;;;;;;;15.30;7.72;;;1.90;99.90;;;;;;4991559;28;20210;-65
2022/03/09 07:44:20;;;;;;;15.07;7.00;;;4.00;99.90;;;;;;4992341;28;20076;-65
2022/03/09 07:46:46;;;;;;;16.13;7.72;;;2.30;99.90;;;;;;4991448;28;20487;-65
2022/03/09 07:49:11;;;;;;;17.00;7.70;;;2.70;99.90;;;;;;5008763;28;20506;-65
2022/03/09 07:51:40;;;;;;;13.70;7.63;;;2.90;99.90;;;;;;5003905;28;20050;-66
2022/03/09 07:54:06;;;;;;;16.40;7.38;;;2.90;99.90;;;;;;5007258;28;20142;-65
2022/03/09 07:56:32;;;;;;;12.98;7.85;;;3.00;99.90;;;;;;5004520;28;20129;-66
2022/03/09 07:59:02;;;;;;;13.88;7.05;;;3.00;99.90;;;;;;5003745;28;20049;-64
2022/03/09 08:01:27;;;;;;;18.33;7.90;;;4.30;99.90;;;;;;4995697;28;20574;-64
2022/03/09 08:03:54;;;;;;;16.08;7.93;;;3.40;99.90;;;;;;4986811;28;20077;-66
2022/03/09 08:06:20;;;;;;;11.85;7.05;;;3.50;99.90;;;;;;4997302;28;20125;-65
2022/03/09 08:08:46;;;;;;;16.95;7.03;;;3.60;99.90;;;;;;5008482;28;20129;-64
2022/03/09 08:11:12;;;;;;;14.90;6.95;;;3.60;99.90;;;;;;4980180;28;20539;-66
2022/03/09 08:13:40;;;;;;;11.23;7.18;;;3.70;99.90;;;;;;5009327;28;20081;-64
2022/03/09 08:16:06;;;;;;;;;;;3.80;99.90;;;;;;4991690;28;20078;-66
2022/03/09 08:18:32;;;;;;;14.00;7.00;;;4.30;99.90;;;;;;5007872;28;19932;-67
2022/03/09 08:20:58;;;;;;;14.02;6.90;;;3.90;99.90;;;;;;4976171;28;20041;-65
2022/03/09 08:23:24;;;;;;;11.00;6.78;;;4.60;99.90;;;;;;5006515;28;20060;-66
2022/03/09 08:25:51;;;;;;;16.30;7.85;;;4.30;99.90;;;;;;5008632;28;20409;-65
2022/03/09 08:28:17;;;;;;;15.18;7.13;;;4.50;99.90;;;;;;5008770;28;20045;-67
2022/03/09 08:30:43;;;;;;;18.98;7.78;;;4.60;99.90;;;;;;4987387;28;20050;-65
2022/03/09 08:33:09;;;;;;;14.10;7.43;;;4.70;99.90;;;;;;4982032;28;20097;-64
2022/03/09 08:35:35;;;;;;;12.98;7.13;;;4.80;99.90;;;;;;4987226;28;20050;-66
2022/03/09 08:38:00;;;;;;;13.95;7.65;;;5.60;99.90;;;;;;4988740;28;20050;-65
2022/03/09 08:40:27;;;;;;;15.70;6.60;;;5.10;99.90;;;;;;4988396;28;20137;-65
2022/03/09 08:42:52;;;;;;;14.80;7.70;;;5.20;99.90;;;;;;4985792;28;20085;-66
2022/03/09 08:45:18;;;;;;;11.90;6.88;;;5.30;99.90;;;;;;4986690;28;20046;-64
2022/03/09 08:47:44;;;;;;;10.02;6.45;;;5.40;99.90;;;;;;4984267;28;20109;-65
2022/03/09 08:50:10;;;;;;;12.02;7.00;;;5.50;99.90;;;;;;4987040;28;20069;-66
2022/03/09 08:52:36;;;;;;;13.10;6.93;;;5.50;99.90;;;;;;4985729;28;20408;-65
2022/03/09 08:55:03;;;;;;;17.63;8.35;;;7.10;99.90;;;;;;4986573;28;20038;-66
2022/03/09 08:57:29;;;;;;;12.88;6.22;;;5.70;99.90;;;;;;4984683;28;20054;-64
2022/03/09 08:59:57;;;;;;;14.40;6.35;;;5.90;99.90;;;;;;4987858;28;20058;-66
2022/03/09 09:02:23;;;;;;;13.65;7.45;;;6.10;99.90;;;;;;4988212;28;20504;-65
2022/03/09 09:04:49;;;;;;;13.40;6.90;;;6.30;99.90;;;;;;4986836;28;20048;-65
2022/03/09 09:07:15;;;;;;;12.65;7.45;;;6.50;99.90;;;;;;4987458;28;20140;-64
2022/03/09 09:09:41;;;;;;;9.88;6.43;;;6.70;99.90;;;;;;4967854;28;20133;-66
2022/03/09 09:12:07;;;;;;;14.70;7.45;;;7.00;99.90;;;;;;4986584;28;20571;-64
2022/03/09 09:14:33;;;;;;;12.63;6.63;;;7.20;99.60;;;;;;4985474;28;20047;-65
2022/03/09 09:16:59;;;;;;;14.00;7.32;;;7.40;99.40;;;;;;4986474;28;20136;-65
2022/03/09 09:19:25;;;;;;;14.23;6.95;;;7.70;99.20;;;;;;4986713;28;20042;-65
2022/03/09 09:21:51;;;;;;;14.32;7.05;;;7.80;98.90;;;;;;4985551;28;20404;-64
2022/03/09 09:24:16;;;;;;;12.65;6.50;;;7.80;97.80;;;;;;4988328;28;20050;-64
2022/03/09 09:26:45;;;;;;;13.70;7.43;;;7.90;97.80;;;;;;4990992;28;20994;-63
2022/03/09 09:29:11;;;;;;;11.73;6.70;;;8.10;98.00;;;;;;4986089;28;20136;-64
2022/03/09 09:31:37;;;;;;;12.80;6.80;;;8.20;97.30;;;;;;4996477;28;20411;-65
2022/03/09 09:34:03;;;;;;;14.43;6.82;;;8.40;97.50;;;;;;4975245;28;20068;-65
2022/03/09 09:36:29;;;;;;;11.05;6.57;;;8.60;97.10;;;;;;4989609;28;20076;-65
2022/03/09 09:38:55;;;;;;;11.38;6.40;;;9.00;97.00;;;;;;5006934;28;20531;-66
2022/03/09 09:41:26;;;;;;;10.88;6.95;;;9.00;96.50;;;;;;4989093;28;20404;-65
2022/03/09 09:43:52;;;;;;;13.10;7.97;;;9.10;96.10;;;;;;5011807;28;20076;-65
2022/03/09 09:46:18;;;;;;;12.98;6.97;;;9.20;95.20;;;;;;4977696;28;20369;-64
2022/03/09 09:48:44;;;;;;;13.82;6.78;;;9.40;95.40;;;;;;5006466;28;20483;-64
2022/03/09 09:51:12;;;;;;;15.57;6.65;;;9.60;95.30;;;;;;4993333;28;20129;-67
2022/03/09 09:53:44;;;;;;;12.50;7.32;;;9.80;94.70;;;;;;5004054;28;20239;-64
2022/03/09 09:56:10;;;;;;;13.88;6.85;;;10.00;94.50;;;;;;5009475;28;20061;-64
2022/03/09 09:58:41;;;;;;;12.05;7.28;;;10.10;93.00;;;;;;5001957;28;20515;-64
2022/03/09 10:01:08;;;;;;;13.48;7.88;;;10.40;92.20;;;;;;4972012;28;20050;-65
2022/03/09 10:03:35;;;;;;;12.27;6.82;;;10.70;93.00;;;;;;4988953;28;20057;-65
2022/03/09 10:06:00;;;;;;;12.23;6.35;;;11.00;91.30;;;;;;4987942;28;20081;-65
2022/03/09 10:08:26;;;;;;;16.13;6.60;;;11.30;90.80;;;;;;5001664;28;20567;-65
2022/03/09 10:11:03;;;;;;;12.48;7.05;;;12.70;90.60;;;;;;5007957;28;20049;-64
2022/03/09 10:13:30;;;;;;;11.23;6.97;;;11.70;89.80;;;;;;5010935;28;20057;-66
2022/03/09 10:16:32;;;;;;;11.27;6.65;;;11.80;87.70;;;;;;4986240;28;20038;-65
2022/03/09 10:18:58;;;;;;;13.20;6.40;;;12.20;82.60;;;;;;4930471;29;20079;-66
2022/03/09 10:21:30;;;;;;;9.45;6.43;;;12.40;84.00;;;;;;4992130;28;20460;-65
2022/03/09 10:24:03;;;;;;;11.23;6.32;;;12.80;80.40;;;;;;4989291;28;20054;-65
2022/03/09 10:26:49;;;;;;;13.77;6.72;;;12.90;81.40;;;;;;4979813;28;20041;-66
2022/03/09 10:29:18;;;;;;;13.40;7.45;;;13.10;75.40;;;;;;5013305;28;20420;-65
2022/03/09 10:31:45;;;;;;;11.90;6.63;;;13.30;76.30;;;;;;5010281;28;20058;-66
2022/03/09 10:34:25;;;;;;;15.57;7.00;;;13.60;74.00;;;;;;5014625;28;20046;-65
2022/03/09 10:36:54;;;;;;;10.93;6.65;;;13.80;70.00;;;;;;5015473;28;20042;-66
2022/03/09 10:39:21;;;;;;;12.27;6.45;;;13.70;68.90;;;;;;5008965;28;20077;-64
2022/03/09 10:41:46;;;;;;;11.50;6.75;;;13.90;69.00;;;;;;5014887;28;20053;-66
2022/03/09 10:44:13;;;;;;;12.73;6.40;;;14.10;68.20;;;;;;5014723;28;20049;-65
2022/03/09 10:46:44;;;;;;;11.65;6.93;;;14.40;67.10;;;;;;4996655;28;20131;-65
2022/03/09 10:49:14;;;;;;;11.60;6.57;;;14.80;65.10;;;;;;5014769;28;20045;-66
2022/03/09 10:51:43;;;;;;;11.45;6.53;;;14.80;63.00;;;;;;4992764;28;20054;-65
2022/03/09 10:54:19;;;;;;;8.90;6.28;;;14.80;59.30;;;;;;5014192;28;20044;-65
2022/03/09 10:56:45;;;;;;;10.25;6.28;;;14.80;59.60;;;;;;5010319;28;20473;-64
2022/03/09 10:59:24;;;;;;;13.18;6.50;;;14.80;58.30;;;;;;5014545;28;20517;-65
2022/03/09 11:02:10;;;;;;;10.02;6.78;;;14.80;58.50;;;;;;4998313;28;20420;-65
2022/03/09 11:04:37;;;;;;;12.55;8.13;;;15.10;57.80;;;;;;5012816;28;20544;-64
2022/03/09 11:07:03;;;;;;;18.10;7.30;;;14.80;57.70;;;;;;5012140;28;20161;-66
2022/03/09 11:09:30;;;;;;;10.65;7.07;;;14.80;57.60;;;;;;5000564;28;20049;-65
2022/03/09 11:11:56;;;;;;;12.57;6.80;;;14.80;58.10;;;;;;5011149;28;20046;-66
2022/03/09 11:14:26;;;;;;;16.08;8.18;;;14.90;57.40;;;;;;4989782;28;20399;-65
2022/03/09 11:16:53;;;;;;;9.82;6.60;;;14.80;57.00;;;;;;4992874;28;20047;-66
2022/03/09 11:19:19;;;;;;;14.35;6.35;;;14.80;56.30;;;;;;4988333;28;20048;-65
2022/03/09 11:21:47;;;;;;;10.85;6.85;;;14.80;56.50;;;;;;4990776;28;20046;-65
2022/03/09 11:24:15;;;;;;;9.55;6.82;;;15.10;57.10;;;;;;5013147;28;20503;-65
2022/03/09 11:26:46;;;;;;;9.93;6.68;;;15.40;55.30;;;;;;4995570;28;20057;-65
2022/03/09 11:29:12;;;;;;;9.23;6.63;;;15.60;52.50;;;;;;5010881;28;20046;-64
2022/03/09 11:31:44;;;;;;;9.25;6.60;;;15.60;52.90;;;;;;4994669;28;20451;-65
2022/03/09 11:34:32;;;;;;;12.63;7.03;;;15.70;53.00;;;;;;5010537;28;20199;-65
2022/03/09 11:37:00;;;;;;;11.33;6.87;;;15.80;50.80;;;;;;5008133;28;20046;-64
2022/03/09 11:39:26;;;;;;;9.85;7.72;;;16.00;49.90;;;;;;5012543;28;20673;-66
2022/03/09 11:42:37;;;;;;;10.68;6.82;;;16.20;51.80;;;;;;5012236;28;20077;-66
2022/03/09 11:45:20;;;;;;;9.27;6.57;;;16.30;48.90;;;;;;4985120;28;20408;-65
2022/03/09 11:48:09;;;;;;;19.05;6.65;;;16.30;48.90;;;;;;4986030;28;20049;-64
2022/03/09 11:50:47;;;;;;;;;;;16.40;48.90;;;;;;4985836;28;20432;-65
2022/03/09 11:53:15;;;;;;;8.90;6.78;;;16.20;49.60;;;;;;5011367;28;19961;-66
2022/03/09 11:55:41;;;;;;;14.35;6.93;;;16.50;50.70;;;;;;5011961;28;20057;-66
2022/03/09 11:58:11;;;;;;;12.70;6.55;;;16.80;50.20;;;;;;5006583;28;20048;-66
2022/03/09 12:00:57;;;;;;;13.75;7.25;;;16.90;48.10;;;;;;5013272;28;20050;-65
2022/03/09 12:03:42;;;;;;;9.50;7.43;;;16.90;47.20;;;;;;5002304;28;20034;-65
2022/03/09 12:06:40;;;;;;;11.05;6.97;;;16.90;46.80;;;;;;5005994;28;20033;-65
2022/03/09 12:09:06;;;;;;;10.43;6.72;;;17.00;45.90;;;;;;5004942;28;20038;-65
2022/03/09 12:12:10;;;;;;;8.77;6.50;;;17.20;46.80;;;;;;4987568;28;20484;-66
2022/03/09 12:15:02;;;;;;;14.70;6.70;;;17.40;45.00;;;;;;5003996;28;20377;-65
2022/03/09 12:17:43;;;;;;;10.95;6.90;;;17.30;45.70;;;;;;5007512;28;20112;-65
2022/03/09 12:20:25;;;;;;;9.23;6.38;;;17.60;45.70;;;;;;4989335;28;20173;-67
2022/03/09 12:22:56;;;;;;;17.35;7.32;;;17.70;44.30;;;;;;4991812;28;20073;-67
2022/03/09 12:25:43;;;;;;;11.52;8.45;;;17.60;44.00;;;;;;4998983;28;20097;-67
2022/03/09 12:28:32;;;;;;;10.75;6.90;;;17.30;43.50;;;;;;5006671;28;20046;-66
2022/03/09 12:30:59;;;;;;;12.65;7.50;;;17.30;44.10;;;;;;5005940;28;20111;-66
2022/03/09 12:33:30;;;;;;;;;;;16.80;45.10;;;;;;5002462;28;20050;-66
2022/03/09 12:36:18;;;;;;;10.77;6.75;;;16.60;44.20;;;;;;5010301;28;20306;-65
2022/03/09 12:38:56;;;;;;;15.68;6.97;;;16.60;43.70;;;;;;5003286;28;20042;-66
2022/03/09 12:41:29;;;;;;;13.95;7.25;;;16.90;44.40;;;;;;4987085;28;20551;-66
2022/03/09 12:44:05;;;;;;;11.52;8.13;;;17.10;43.80;;;;;;5009445;28;20499;-66
2022/03/09 12:46:32;;;;;;;12.10;7.18;;;17.20;44.00;;;;;;5003241;28;20121;-67
2022/03/09 12:49:01;;;;;;;11.63;7.43;;;17.30;43.90;;;;;;5008098;28;20042;-66
2022/03/09 12:51:27;;;;;;;13.63;8.65;;;17.20;43.50;;;;;;5006182;28;20073;-66